sensor_id;sensor_type;location;lat;lon;timestamp;pressure;altitude;pressure_sealevel;temperature;humidity
3096;BME280;1558;42.700;23.360;2023-04-27T00:00:36;95003.34;;;8.36;70.96
3096;BME280;1558;42.700;23.360;2023-04-27T00:03:04;95010.28;;;8.37;70.81
3096;BME280;1558;42.700;23.360;2023-04-27T00:05:34;95005.88;;;8.24;70.75
3096;BME280;1558;42.700;23.360;2023-04-27T00:08:02;95013.91;;;8.32;70.96
3096;BME280;1558;42.700;23.360;2023-04-27T00:10:31;95020.59;;;8.26;69.93
3096;BME280;1558;42.700;23.360;2023-04-27T00:12:59;95022.06;;;8.15;70.90
3096;BME280;1558;42.700;23.360;2023-04-27T00:15:29;95016.97;;;8.13;70.38
3096;BME280;1558;42.700;23.360;2023-04-27T00:17:57;95023.66;;;8.07;70.66
3096;BME280;1558;42.700;23.360;2023-04-27T00:20:25;95012.97;;;7.90;70.96
3096;BME280;1558;42.700;23.360;2023-04-27T00:22:54;95024.97;;;7.93;70.98
3096;BME280;1558;42.700;23.360;2023-04-27T00:25:22;95039.19;;;7.93;71.61
3096;BME280;1558;42.700;23.360;2023-04-27T00:27:50;94984.03;;;7.58;71.72
3096;BME280;1558;42.700;23.360;2023-04-27T00:30:18;95032.72;;;7.86;71.09
3096;BME280;1558;42.700;23.360;2023-04-27T00:32:48;95032.44;;;7.79;71.38
3096;BME280;1558;42.700;23.360;2023-04-27T00:35:16;95016.38;;;7.62;71.85
3096;BME280;1558;42.700;23.360;2023-04-27T00:37:44;95029.00;;;7.70;72.06
3096;BME280;1558;42.700;23.360;2023-04-27T00:40:12;95034.97;;;7.67;72.14
3096;BME280;1558;42.700;23.360;2023-04-27T00:42:40;95031.53;;;7.58;71.90
3096;BME280;1558;42.700;23.360;2023-04-27T00:45:09;95014.53;;;7.36;72.63
3096;BME280;1558;42.700;23.360;2023-04-27T00:47:39;95039.56;;;7.49;72.42
3096;BME280;1558;42.700;23.360;2023-04-27T00:50:09;95024.59;;;7.39;71.68
3096;BME280;1558;42.700;23.360;2023-04-27T00:52:38;95027.94;;;7.36;72.87
3096;BME280;1558;42.700;23.360;2023-04-27T00:55:07;95026.84;;;7.29;73.05
3096;BME280;1558;42.700;23.360;2023-04-27T00:57:35;95041.66;;;7.35;73.82
3096;BME280;1558;42.700;23.360;2023-04-27T01:00:05;95040.72;;;7.31;74.07
3096;BME280;1558;42.700;23.360;2023-04-27T01:02:34;95041.19;;;7.24;73.95
3096;BME280;1558;42.700;23.360;2023-04-27T01:05:03;95029.84;;;7.10;73.90
3096;BME280;1558;42.700;23.360;2023-04-27T01:07:37;95045.78;;;7.15;74.58
3096;BME280;1558;42.700;23.360;2023-04-27T01:10:07;95052.56;;;7.13;74.38
3096;BME280;1558;42.700;23.360;2023-04-27T01:12:35;95055.41;;;7.08;74.50
3096;BME280;1558;42.700;23.360;2023-04-27T01:15:05;95037.25;;;6.96;75.39
3096;BME280;1558;42.700;23.360;2023-04-27T01:17:33;95052.88;;;7.03;75.20
3096;BME280;1558;42.700;23.360;2023-04-27T01:20:01;95052.69;;;6.99;75.87
3096;BME280;1558;42.700;23.360;2023-04-27T01:22:33;95037.41;;;6.91;75.67
3096;BME280;1558;42.700;23.360;2023-04-27T01:25:03;95059.00;;;6.95;75.34
3096;BME280;1558;42.700;23.360;2023-04-27T01:27:31;95060.75;;;6.91;76.13
3096;BME280;1558;42.700;23.360;2023-04-27T01:29:59;95055.19;;;6.87;75.90
3096;BME280;1558;42.700;23.360;2023-04-27T01:32:27;95049.50;;;6.80;76.18
3096;BME280;1558;42.700;23.360;2023-04-27T01:34:56;95014.81;;;6.58;76.33
3096;BME280;1558;42.700;23.360;2023-04-27T01:37:25;95062.91;;;6.80;77.23
3096;BME280;1558;42.700;23.360;2023-04-27T01:39:53;95061.50;;;6.82;76.38
3096;BME280;1558;42.700;23.360;2023-04-27T01:42:23;95058.19;;;6.77;76.34
3096;BME280;1558;42.700;23.360;2023-04-27T01:44:51;95078.38;;;6.83;75.89
3096;BME280;1558;42.700;23.360;2023-04-27T01:47:20;95076.81;;;6.82;76.09
3096;BME280;1558;42.700;23.360;2023-04-27T01:49:48;95071.28;;;6.78;76.66
3096;BME280;1558;42.700;23.360;2023-04-27T01:52:16;95070.34;;;6.83;76.79
3096;BME280;1558;42.700;23.360;2023-04-27T01:54:44;95077.09;;;6.80;76.54
3096;BME280;1558;42.700;23.360;2023-04-27T01:57:13;95068.59;;;6.78;76.44
3096;BME280;1558;42.700;23.360;2023-04-27T01:59:43;95069.88;;;6.72;76.01
3096;BME280;1558;42.700;23.360;2023-04-27T02:02:11;95064.50;;;6.72;76.05
3096;BME280;1558;42.700;23.360;2023-04-27T02:04:39;95076.16;;;6.76;76.29
3096;BME280;1558;42.700;23.360;2023-04-27T02:07:09;95080.72;;;6.76;75.88
3096;BME280;1558;42.700;23.360;2023-04-27T02:09:37;95083.41;;;6.76;75.75
3096;BME280;1558;42.700;23.360;2023-04-27T02:12:05;95073.81;;;6.75;76.11
3096;BME280;1558;42.700;23.360;2023-04-27T02:14:36;95076.16;;;6.76;76.76
3096;BME280;1558;42.700;23.360;2023-04-27T02:17:05;95075.38;;;6.76;75.90
3096;BME280;1558;42.700;23.360;2023-04-27T02:19:34;95068.56;;;6.61;75.93
3096;BME280;1558;42.700;23.360;2023-04-27T02:22:02;95083.22;;;6.64;76.49
3096;BME280;1558;42.700;23.360;2023-04-27T02:24:30;95072.81;;;6.62;76.71
3096;BME280;1558;42.700;23.360;2023-04-27T02:26:58;95077.06;;;6.63;76.74
3096;BME280;1558;42.700;23.360;2023-04-27T02:29:29;95072.81;;;6.62;77.03
3096;BME280;1558;42.700;23.360;2023-04-27T02:31:57;95077.06;;;6.63;76.65
3096;BME280;1558;42.700;23.360;2023-04-27T02:34:27;95080.53;;;6.55;76.95
3096;BME280;1558;42.700;23.360;2023-04-27T02:36:55;95024.63;;;6.14;75.93
3096;BME280;1558;42.700;23.360;2023-04-27T02:39:23;95087.31;;;6.53;76.84
3096;BME280;1558;42.700;23.360;2023-04-27T02:41:51;94937.19;;;5.62;76.68
3096;BME280;1558;42.700;23.360;2023-04-27T02:44:19;95085.56;;;6.48;76.85
3096;BME280;1558;42.700;23.360;2023-04-27T02:46:48;95074.19;;;6.43;76.16
3096;BME280;1558;42.700;23.360;2023-04-27T02:49:16;95081.75;;;6.49;76.90
3096;BME280;1558;42.700;23.360;2023-04-27T02:51:46;95084.16;;;6.51;76.42
3096;BME280;1558;42.700;23.360;2023-04-27T02:54:14;95047.94;;;6.14;75.61
3096;BME280;1558;42.700;23.360;2023-04-27T02:56:42;95076.03;;;6.34;76.21
3096;BME280;1558;42.700;23.360;2023-04-27T02:59:10;95085.81;;;6.38;77.34
3096;BME280;1558;42.700;23.360;2023-04-27T03:01:38;95092.47;;;6.41;77.11
3096;BME280;1558;42.700;23.360;2023-04-27T03:04:06;95097.94;;;6.36;77.12
3096;BME280;1558;42.700;23.360;2023-04-27T03:06:34;95099.19;;;6.30;76.77
3096;BME280;1558;42.700;23.360;2023-04-27T03:09:04;95096.00;;;6.28;76.63
3096;BME280;1558;42.700;23.360;2023-04-27T03:11:32;95068.38;;;6.10;76.95
3096;BME280;1558;42.700;23.360;2023-04-27T03:14:02;95106.72;;;6.28;76.87
3096;BME280;1558;42.700;23.360;2023-04-27T03:16:31;95101.81;;;6.21;76.75
3096;BME280;1558;42.700;23.360;2023-04-27T03:18:59;95105.16;;;6.27;76.70
3096;BME280;1558;42.700;23.360;2023-04-27T03:21:27;95111.00;;;6.29;77.06
3096;BME280;1558;42.700;23.360;2023-04-27T03:23:55;95107.84;;;6.27;76.27
3096;BME280;1558;42.700;23.360;2023-04-27T03:26:24;95108.56;;;6.19;76.16
3096;BME280;1558;42.700;23.360;2023-04-27T03:28:53;95120.56;;;6.21;76.35
3096;BME280;1558;42.700;23.360;2023-04-27T03:31:21;95111.38;;;6.13;76.94
3096;BME280;1558;42.700;23.360;2023-04-27T03:33:49;95107.75;;;6.09;77.21
3096;BME280;1558;42.700;23.360;2023-04-27T03:36:18;95124.16;;;6.17;77.83
3096;BME280;1558;42.700;23.360;2023-04-27T03:38:46;95116.13;;;6.17;76.82
3096;BME280;1558;42.700;23.360;2023-04-27T03:41:14;95114.97;;;6.09;77.20
3096;BME280;1558;42.700;23.360;2023-04-27T03:43:44;95134.06;;;6.16;76.49
3096;BME280;1558;42.700;23.360;2023-04-27T03:46:13;95134.88;;;6.17;77.20
3096;BME280;1558;42.700;23.360;2023-04-27T03:48:41;95127.03;;;6.20;76.95
3096;BME280;1558;42.700;23.360;2023-04-27T03:51:09;95119.41;;;6.13;76.89
3096;BME280;1558;42.700;23.360;2023-04-27T03:53:38;95131.28;;;6.21;77.48
3096;BME280;1558;42.700;23.360;2023-04-27T03:56:06;95127.97;;;6.16;77.50
3096;BME280;1558;42.700;23.360;2023-04-27T03:58:34;95139.78;;;6.23;77.14
3096;BME280;1558;42.700;23.360;2023-04-27T04:01:04;95141.69;;;6.23;77.01
3096;BME280;1558;42.700;23.360;2023-04-27T04:03:32;95139.91;;;6.18;76.88
3096;BME280;1558;42.700;23.360;2023-04-27T04:06:00;95151.16;;;6.29;76.25
3096;BME280;1558;42.700;23.360;2023-04-27T04:08:29;95141.50;;;6.19;76.54
3096;BME280;1558;42.700;23.360;2023-04-27T04:10:58;95158.25;;;6.25;76.30
3096;BME280;1558;42.700;23.360;2023-04-27T04:13:26;95159.31;;;6.24;76.56
3096;BME280;1558;42.700;23.360;2023-04-27T04:16:04;95152.53;;;6.18;76.01
3096;BME280;1558;42.700;23.360;2023-04-27T04:18:33;95168.47;;;6.23;76.09
3096;BME280;1558;42.700;23.360;2023-04-27T04:21:02;95167.69;;;6.22;75.86
3096;BME280;1558;42.700;23.360;2023-04-27T04:23:30;95173.19;;;6.26;75.43
3096;BME280;1558;42.700;23.360;2023-04-27T04:25:58;95178.88;;;6.24;75.36
3096;BME280;1558;42.700;23.360;2023-04-27T04:28:28;95171.28;;;6.18;75.52
3096;BME280;1558;42.700;23.360;2023-04-27T04:30:56;95181.41;;;6.60;75.02
3096;BME280;1558;42.700;23.360;2023-04-27T04:33:26;95185.31;;;6.54;75.20
3096;BME280;1558;42.700;23.360;2023-04-27T04:35:54;95198.88;;;6.49;73.89
3096;BME280;1558;42.700;23.360;2023-04-27T04:38:22;95178.47;;;6.70;73.74
3096;BME280;1558;42.700;23.360;2023-04-27T04:40:50;95186.03;;;6.68;73.44
3096;BME280;1558;42.700;23.360;2023-04-27T04:43:18;95179.81;;;6.98;73.50
3096;BME280;1558;42.700;23.360;2023-04-27T04:45:47;95181.94;;;7.35;73.98
3096;BME280;1558;42.700;23.360;2023-04-27T04:48:15;95195.00;;;8.57;70.70
3096;BME280;1558;42.700;23.360;2023-04-27T04:50:44;95202.09;;;9.08;66.84
3096;BME280;1558;42.700;23.360;2023-04-27T04:53:12;95138.19;;;9.25;65.00
3096;BME280;1558;42.700;23.360;2023-04-27T04:55:41;95208.19;;;10.49;63.99
3096;BME280;1558;42.700;23.360;2023-04-27T04:58:09;95203.59;;;11.07;59.78
3096;BME280;1558;42.700;23.360;2023-04-27T05:00:37;95138.00;;;10.70;59.39
3096;BME280;1558;42.700;23.360;2023-04-27T05:03:05;95210.13;;;11.54;58.26
3096;BME280;1558;42.700;23.360;2023-04-27T05:05:33;95211.25;;;11.17;56.96
3096;BME280;1558;42.700;23.360;2023-04-27T05:08:03;95219.81;;;11.43;57.24
3096;BME280;1558;42.700;23.360;2023-04-27T05:10:31;95202.13;;;11.45;56.70
3096;BME280;1558;42.700;23.360;2023-04-27T05:12:59;95225.00;;;10.67;56.75
3096;BME280;1558;42.700;23.360;2023-04-27T05:15:28;95207.47;;;10.07;59.02
3096;BME280;1558;42.700;23.360;2023-04-27T05:17:56;95206.53;;;10.57;58.70
3096;BME280;1558;42.700;23.360;2023-04-27T05:20:24;95216.22;;;10.70;57.45
3096;BME280;1558;42.700;23.360;2023-04-27T05:22:52;95221.94;;;11.25;57.45
3096;BME280;1558;42.700;23.360;2023-04-27T05:25:21;95222.84;;;10.28;58.03
3096;BME280;1558;42.700;23.360;2023-04-27T05:27:49;95231.28;;;9.26;59.67
3096;BME280;1558;42.700;23.360;2023-04-27T05:30:17;95238.28;;;8.81;62.33
3096;BME280;1558;42.700;23.360;2023-04-27T05:32:45;95236.28;;;8.52;63.26
3096;BME280;1558;42.700;23.360;2023-04-27T05:35:14;95231.69;;;8.44;63.84
3096;BME280;1558;42.700;23.360;2023-04-27T05:37:42;95242.47;;;8.44;63.34
3096;BME280;1558;42.700;23.360;2023-04-27T05:40:10;95236.81;;;8.29;64.66
3096;BME280;1558;42.700;23.360;2023-04-27T05:42:40;95241.22;;;8.33;65.10
3096;BME280;1558;42.700;23.360;2023-04-27T05:45:08;95237.09;;;8.53;65.45
3096;BME280;1558;42.700;23.360;2023-04-27T05:47:37;95106.81;;;7.78;64.93
3096;BME280;1558;42.700;23.360;2023-04-27T05:50:05;95239.41;;;8.63;64.85
3096;BME280;1558;42.700;23.360;2023-04-27T05:52:34;95248.47;;;8.50;64.89
3096;BME280;1558;42.700;23.360;2023-04-27T05:55:04;95171.53;;;8.19;65.69
3096;BME280;1558;42.700;23.360;2023-04-27T05:57:33;95214.19;;;8.84;64.52
3096;BME280;1558;42.700;23.360;2023-04-27T06:00:03;95252.00;;;8.88;64.66
3096;BME280;1558;42.700;23.360;2023-04-27T06:02:36;95210.16;;;8.61;63.93
3096;BME280;1558;42.700;23.360;2023-04-27T06:05:05;95247.06;;;8.99;64.88
3096;BME280;1558;42.700;23.360;2023-04-27T06:07:33;95231.88;;;8.94;64.08
3096;BME280;1558;42.700;23.360;2023-04-27T06:10:03;95235.50;;;10.06;63.63
3096;BME280;1558;42.700;23.360;2023-04-27T06:12:31;95234.53;;;9.90;61.07
3096;BME280;1558;42.700;23.360;2023-04-27T06:14:59;95210.41;;;9.73;61.39
3096;BME280;1558;42.700;23.360;2023-04-27T06:17:30;95227.97;;;9.79;61.83
3096;BME280;1558;42.700;23.360;2023-04-27T06:19:59;95235.06;;;10.04;61.96
3096;BME280;1558;42.700;23.360;2023-04-27T06:22:27;95236.25;;;9.95;61.30
3096;BME280;1558;42.700;23.360;2023-04-27T06:24:55;95228.28;;;10.84;60.77
3096;BME280;1558;42.700;23.360;2023-04-27T06:27:22;95235.31;;;10.98;59.39
3096;BME280;1558;42.700;23.360;2023-04-27T06:29:50;95222.34;;;10.79;58.79
3096;BME280;1558;42.700;23.360;2023-04-27T06:32:18;95238.03;;;10.65;58.82
3096;BME280;1558;42.700;23.360;2023-04-27T06:34:48;95232.78;;;10.80;59.09
3096;BME280;1558;42.700;23.360;2023-04-27T06:37:16;95208.00;;;11.35;57.54
3096;BME280;1558;42.700;23.360;2023-04-27T06:39:44;95220.28;;;12.09;58.01
3096;BME280;1558;42.700;23.360;2023-04-27T06:42:13;95223.31;;;12.90;54.88
3096;BME280;1558;42.700;23.360;2023-04-27T06:44:40;95228.53;;;13.42;54.29
3096;BME280;1558;42.700;23.360;2023-04-27T06:47:08;95223.44;;;13.91;51.67
3096;BME280;1558;42.700;23.360;2023-04-27T06:49:36;95209.56;;;14.12;50.24
3096;BME280;1558;42.700;23.360;2023-04-27T06:52:06;95216.69;;;14.36;49.36
3096;BME280;1558;42.700;23.360;2023-04-27T06:54:34;95216.97;;;14.69;48.86
3096;BME280;1558;42.700;23.360;2023-04-27T06:57:02;95204.22;;;14.73;47.24
3096;BME280;1558;42.700;23.360;2023-04-27T06:59:30;95215.16;;;14.38;47.20
3096;BME280;1558;42.700;23.360;2023-04-27T07:01:58;95211.19;;;13.97;47.04
3096;BME280;1558;42.700;23.360;2023-04-27T07:04:27;95222.22;;;13.89;48.30
3096;BME280;1558;42.700;23.360;2023-04-27T07:06:55;95202.78;;;14.02;48.33
3096;BME280;1558;42.700;23.360;2023-04-27T07:09:25;95209.63;;;13.46;47.89
3096;BME280;1558;42.700;23.360;2023-04-27T07:11:56;95216.16;;;13.76;49.53
3096;BME280;1558;42.700;23.360;2023-04-27T07:14:24;95210.03;;;15.17;47.99
3096;BME280;1558;42.700;23.360;2023-04-27T07:16:52;95209.84;;;15.29;45.40
3096;BME280;1558;42.700;23.360;2023-04-27T07:19:20;95205.38;;;15.89;45.70
3096;BME280;1558;42.700;23.360;2023-04-27T07:21:48;95174.00;;;15.20;43.86
3096;BME280;1558;42.700;23.360;2023-04-27T07:24:17;95213.13;;;13.46;46.86
3096;BME280;1558;42.700;23.360;2023-04-27T07:26:47;95209.13;;;12.81;48.63
3096;BME280;1558;42.700;23.360;2023-04-27T07:29:15;95210.66;;;12.51;49.39
3096;BME280;1558;42.700;23.360;2023-04-27T07:31:53;95213.47;;;12.27;49.80
3096;BME280;1558;42.700;23.360;2023-04-27T07:34:21;95201.34;;;11.81;51.18
3096;BME280;1558;42.700;23.360;2023-04-27T07:36:50;95205.28;;;11.84;51.13
3096;BME280;1558;42.700;23.360;2023-04-27T07:39:20;95190.63;;;11.61;51.64
3096;BME280;1558;42.700;23.360;2023-04-27T07:41:49;95205.50;;;11.67;53.07
3096;BME280;1558;42.700;23.360;2023-04-27T07:44:18;95193.28;;;11.97;53.00
3096;BME280;1558;42.700;23.360;2023-04-27T07:46:46;95168.66;;;11.86;51.75
3096;BME280;1558;42.700;23.360;2023-04-27T07:49:15;95206.31;;;13.52;49.75
3096;BME280;1558;42.700;23.360;2023-04-27T07:51:43;95207.09;;;15.03;48.46
3096;BME280;1558;42.700;23.360;2023-04-27T07:54:11;95184.56;;;16.00;45.65
3096;BME280;1558;42.700;23.360;2023-04-27T07:56:41;95194.03;;;16.72;43.75
3096;BME280;1558;42.700;23.360;2023-04-27T07:59:10;95202.16;;;15.80;42.33
3096;BME280;1558;42.700;23.360;2023-04-27T08:01:41;95203.22;;;14.23;44.55
3096;BME280;1558;42.700;23.360;2023-04-27T08:04:09;95199.00;;;15.51;44.25
3096;BME280;1558;42.700;23.360;2023-04-27T08:06:39;95201.50;;;14.73;44.67
3096;BME280;1558;42.700;23.360;2023-04-27T08:09:07;95199.94;;;13.45;45.09
3096;BME280;1558;42.700;23.360;2023-04-27T08:11:35;95201.66;;;14.61;46.78
3096;BME280;1558;42.700;23.360;2023-04-27T08:14:04;95196.53;;;15.20;43.95
3096;BME280;1558;42.700;23.360;2023-04-27T08:16:36;95197.00;;;15.48;43.11
3096;BME280;1558;42.700;23.360;2023-04-27T08:19:04;95206.97;;;14.54;43.65
3096;BME280;1558;42.700;23.360;2023-04-27T08:21:32;95208.19;;;14.79;43.68
3096;BME280;1558;42.700;23.360;2023-04-27T08:24:00;95203.19;;;15.72;42.64
3096;BME280;1558;42.700;23.360;2023-04-27T08:26:28;95184.00;;;15.87;42.83
3096;BME280;1558;42.700;23.360;2023-04-27T08:28:56;95166.78;;;16.39;42.26
3096;BME280;1558;42.700;23.360;2023-04-27T08:31:25;95199.31;;;16.95;41.52
3096;BME280;1558;42.700;23.360;2023-04-27T08:33:55;95198.22;;;17.00;39.57
3096;BME280;1558;42.700;23.360;2023-04-27T08:36:24;95207.09;;;16.93;40.08
3096;BME280;1558;42.700;23.360;2023-04-27T08:38:53;95197.09;;;17.04;40.75
3096;BME280;1558;42.700;23.360;2023-04-27T08:41:22;95202.03;;;16.91;40.69
3096;BME280;1558;42.700;23.360;2023-04-27T08:43:51;95201.91;;;18.19;39.97
3096;BME280;1558;42.700;23.360;2023-04-27T08:46:20;95189.81;;;18.20;38.58
3096;BME280;1558;42.700;23.360;2023-04-27T08:48:51;95193.50;;;17.88;39.61
3096;BME280;1558;42.700;23.360;2023-04-27T08:51:21;95179.31;;;17.61;38.71
3096;BME280;1558;42.700;23.360;2023-04-27T08:53:52;95181.00;;;17.83;38.01
3096;BME280;1558;42.700;23.360;2023-04-27T08:56:22;95146.00;;;17.96;38.45
3096;BME280;1558;42.700;23.360;2023-04-27T08:58:51;95188.34;;;17.28;38.17
3096;BME280;1558;42.700;23.360;2023-04-27T09:01:19;95193.41;;;15.93;40.58
3096;BME280;1558;42.700;23.360;2023-04-27T09:03:47;95148.00;;;14.73;42.29
3096;BME280;1558;42.700;23.360;2023-04-27T09:06:17;95190.41;;;14.40;43.65
3096;BME280;1558;42.700;23.360;2023-04-27T09:08:57;95197.88;;;14.65;44.18
3096;BME280;1558;42.700;23.360;2023-04-27T09:11:30;95073.91;;;14.73;43.01
3096;BME280;1558;42.700;23.360;2023-04-27T09:13:59;95166.63;;;13.79;43.80
3096;BME280;1558;42.700;23.360;2023-04-27T09:16:29;95190.88;;;13.72;44.99
3096;BME280;1558;42.700;23.360;2023-04-27T09:18:57;95176.94;;;14.88;43.88
3096;BME280;1558;42.700;23.360;2023-04-27T09:21:26;95154.75;;;16.40;41.88
3096;BME280;1558;42.700;23.360;2023-04-27T09:23:56;95186.72;;;15.87;40.54
3096;BME280;1558;42.700;23.360;2023-04-27T09:26:26;95193.53;;;14.61;42.79
3096;BME280;1558;42.700;23.360;2023-04-27T09:28:55;95190.22;;;14.71;43.52
3096;BME280;1558;42.700;23.360;2023-04-27T09:31:30;95171.16;;;15.35;43.37
3096;BME280;1558;42.700;23.360;2023-04-27T09:33:58;95184.81;;;16.80;41.23
3096;BME280;1558;42.700;23.360;2023-04-27T09:36:28;95184.22;;;17.45;40.18
3096;BME280;1558;42.700;23.360;2023-04-27T09:39:02;95154.53;;;16.22;39.80
3096;BME280;1558;42.700;23.360;2023-04-27T09:41:31;95168.19;;;15.96;40.49
3096;BME280;1558;42.700;23.360;2023-04-27T09:43:59;95155.97;;;15.08;42.44
3096;BME280;1558;42.700;23.360;2023-04-27T09:46:29;95129.91;;;14.20;42.71
3096;BME280;1558;42.700;23.360;2023-04-27T09:49:00;95166.38;;;14.61;43.61
3096;BME280;1558;42.700;23.360;2023-04-27T09:51:32;95153.63;;;15.55;43.35
3096;BME280;1558;42.700;23.360;2023-04-27T09:54:03;95156.38;;;15.10;42.58
3096;BME280;1558;42.700;23.360;2023-04-27T09:56:41;95157.25;;;14.50;42.99
3096;BME280;1558;42.700;23.360;2023-04-27T09:59:25;95155.38;;;13.96;43.99
3096;BME280;1558;42.700;23.360;2023-04-27T10:01:59;95157.44;;;13.84;43.83
3096;BME280;1558;42.700;23.360;2023-04-27T10:05:06;95162.75;;;13.45;45.02
3096;BME280;1558;42.700;23.360;2023-04-27T10:07:37;95164.19;;;13.39;44.90
3096;BME280;1558;42.700;23.360;2023-04-27T10:10:15;95157.44;;;13.49;45.48
3096;BME280;1558;42.700;23.360;2023-04-27T10:12:54;95156.22;;;13.81;45.40
3096;BME280;1558;42.700;23.360;2023-04-27T10:15:27;95152.00;;;13.84;45.67
3096;BME280;1558;42.700;23.360;2023-04-27T10:17:55;95154.38;;;13.85;44.98
3096;BME280;1558;42.700;23.360;2023-04-27T10:20:31;95157.81;;;14.81;44.91
3096;BME280;1558;42.700;23.360;2023-04-27T10:22:59;95149.41;;;16.17;42.84
3096;BME280;1558;42.700;23.360;2023-04-27T10:25:35;95150.69;;;15.68;40.99
3096;BME280;1558;42.700;23.360;2023-04-27T10:28:04;95139.38;;;15.39;40.68
3096;BME280;1558;42.700;23.360;2023-04-27T10:30:35;95153.97;;;15.28;41.65
3096;BME280;1558;42.700;23.360;2023-04-27T10:33:05;95100.50;;;15.09;41.97
3096;BME280;1558;42.700;23.360;2023-04-27T10:35:34;95131.53;;;15.87;41.03
3096;BME280;1558;42.700;23.360;2023-04-27T10:38:06;95026.56;;;14.97;40.83
3096;BME280;1558;42.700;23.360;2023-04-27T10:40:37;95150.28;;;14.94;40.43
3096;BME280;1558;42.700;23.360;2023-04-27T10:43:09;95148.50;;;14.21;41.46
3096;BME280;1558;42.700;23.360;2023-04-27T10:45:37;95152.88;;;13.88;42.78
3096;BME280;1558;42.700;23.360;2023-04-27T10:48:06;95143.31;;;13.94;43.26
3096;BME280;1558;42.700;23.360;2023-04-27T10:50:34;95109.97;;;13.74;43.72
3096;BME280;1558;42.700;23.360;2023-04-27T10:53:03;95114.56;;;14.08;42.96
3096;BME280;1558;42.700;23.360;2023-04-27T10:55:33;95148.00;;;14.73;42.57
3096;BME280;1558;42.700;23.360;2023-04-27T10:58:03;95119.13;;;14.43;42.42
3096;BME280;1558;42.700;23.360;2023-04-27T11:00:33;95141.97;;;14.42;41.98
3096;BME280;1558;42.700;23.360;2023-04-27T11:03:13;95146.28;;;14.43;41.97
3096;BME280;1558;42.700;23.360;2023-04-27T11:05:43;95140.47;;;14.06;41.62
3096;BME280;1558;42.700;23.360;2023-04-27T11:08:13;95089.72;;;13.68;42.67
3096;BME280;1558;42.700;23.360;2023-04-27T11:10:43;95139.66;;;13.86;43.23
3096;BME280;1558;42.700;23.360;2023-04-27T11:13:14;95136.53;;;13.84;42.32
3096;BME280;1558;42.700;23.360;2023-04-27T11:15:46;95144.09;;;13.94;42.79
3096;BME280;1558;42.700;23.360;2023-04-27T11:18:16;95144.81;;;13.91;43.26
3096;BME280;1558;42.700;23.360;2023-04-27T11:20:47;95145.97;;;13.90;43.15
3096;BME280;1558;42.700;23.360;2023-04-27T11:23:22;95116.75;;;13.65;43.04
3096;BME280;1558;42.700;23.360;2023-04-27T11:25:51;95141.75;;;14.12;42.72
3096;BME280;1558;42.700;23.360;2023-04-27T11:28:21;95155.25;;;14.47;42.32
3096;BME280;1558;42.700;23.360;2023-04-27T11:30:56;95159.03;;;14.23;41.68
3096;BME280;1558;42.700;23.360;2023-04-27T11:33:25;95158.50;;;13.79;42.78
3096;BME280;1558;42.700;23.360;2023-04-27T11:35:54;95145.38;;;14.00;42.56
3096;BME280;1558;42.700;23.360;2023-04-27T11:38:22;95156.03;;;14.09;42.81
3096;BME280;1558;42.700;23.360;2023-04-27T11:41:02;95145.03;;;14.02;43.02
3096;BME280;1558;42.700;23.360;2023-04-27T11:43:32;95140.47;;;14.25;42.41
3096;BME280;1558;42.700;23.360;2023-04-27T11:46:04;95150.91;;;14.42;41.58
3096;BME280;1558;42.700;23.360;2023-04-27T11:48:35;95156.66;;;14.21;42.34
3096;BME280;1558;42.700;23.360;2023-04-27T11:51:04;95156.09;;;14.51;42.53
3096;BME280;1558;42.700;23.360;2023-04-27T11:53:33;95160.66;;;14.27;42.22
3096;BME280;1558;42.700;23.360;2023-04-27T11:56:03;95162.97;;;14.25;42.19
3096;BME280;1558;42.700;23.360;2023-04-27T11:58:33;95156.38;;;14.07;41.69
3096;BME280;1558;42.700;23.360;2023-04-27T12:01:02;95165.22;;;13.85;41.72
3096;BME280;1558;42.700;23.360;2023-04-27T12:03:30;95118.41;;;13.69;41.85
3096;BME280;1558;42.700;23.360;2023-04-27T12:05:59;95158.81;;;14.12;43.26
3096;BME280;1558;42.700;23.360;2023-04-27T12:08:47;95165.81;;;14.13;42.45
3096;BME280;1558;42.700;23.360;2023-04-27T12:11:15;95149.81;;;14.08;42.71
3096;BME280;1558;42.700;23.360;2023-04-27T12:13:44;95160.25;;;14.06;42.21
3096;BME280;1558;42.700;23.360;2023-04-27T12:16:12;95160.53;;;14.40;42.85
3096;BME280;1558;42.700;23.360;2023-04-27T12:18:41;95165.41;;;14.31;41.75
3096;BME280;1558;42.700;23.360;2023-04-27T12:21:09;95160.84;;;14.35;41.44
3096;BME280;1558;42.700;23.360;2023-04-27T12:23:37;95158.63;;;14.82;41.38
3096;BME280;1558;42.700;23.360;2023-04-27T12:26:05;95146.31;;;15.37;40.68
3096;BME280;1558;42.700;23.360;2023-04-27T12:28:33;95165.50;;;15.21;40.17
3096;BME280;1558;42.700;23.360;2023-04-27T12:31:04;95169.97;;;15.10;40.57
3096;BME280;1558;42.700;23.360;2023-04-27T12:33:32;95102.53;;;14.48;40.50
3096;BME280;1558;42.700;23.360;2023-04-27T12:36:00;95104.41;;;14.24;40.93
3096;BME280;1558;42.700;23.360;2023-04-27T12:38:28;95160.84;;;14.35;41.51
3096;BME280;1558;42.700;23.360;2023-04-27T12:40:57;95173.88;;;14.29;42.31
3096;BME280;1558;42.700;23.360;2023-04-27T12:43:26;95172.41;;;14.32;41.93
3096;BME280;1558;42.700;23.360;2023-04-27T12:45:54;95179.09;;;14.18;41.37
3096;BME280;1558;42.700;23.360;2023-04-27T12:48:24;95167.69;;;14.09;41.84
3096;BME280;1558;42.700;23.360;2023-04-27T12:50:52;95171.38;;;14.01;42.40
3096;BME280;1558;42.700;23.360;2023-04-27T12:53:20;95163.53;;;14.35;42.55
3096;BME280;1558;42.700;23.360;2023-04-27T12:55:48;95174.66;;;14.68;42.14
3096;BME280;1558;42.700;23.360;2023-04-27T12:58:16;95175.03;;;14.89;41.92
3096;BME280;1558;42.700;23.360;2023-04-27T13:00:44;95139.72;;;14.66;41.32
3096;BME280;1558;42.700;23.360;2023-04-27T13:03:13;95160.44;;;14.97;41.92
3096;BME280;1558;42.700;23.360;2023-04-27T13:05:42;95163.63;;;15.03;41.56
3096;BME280;1558;42.700;23.360;2023-04-27T13:08:11;95166.34;;;15.03;40.75
3096;BME280;1558;42.700;23.360;2023-04-27T13:10:39;95164.03;;;14.82;39.96
3096;BME280;1558;42.700;23.360;2023-04-27T13:13:08;95163.66;;;14.22;40.87
3096;BME280;1558;42.700;23.360;2023-04-27T13:15:36;95159.53;;;14.09;41.86
3096;BME280;1558;42.700;23.360;2023-04-27T13:18:04;95158.53;;;14.17;41.96
3096;BME280;1558;42.700;23.360;2023-04-27T13:20:32;95155.59;;;14.26;42.57
3096;BME280;1558;42.700;23.360;2023-04-27T13:23:03;95148.59;;;14.25;42.25
3096;BME280;1558;42.700;23.360;2023-04-27T13:25:32;95160.53;;;14.20;42.15